Time;durP1;ratioP1;P1;durP2;ratioP2;P2;SDS_P1;SDS_P2;PMS_P1;PMS_P2;Temp;Humidity;BMP_temperature;BMP_pressure;BME280_temperature;BME280_humidity;BME280_pressure;Samples;Min_cycle;Max_cycle;Signal;HPM_P1;HPM_P2
2023/05/23 00:00:58;;;;;;;3.15;2.30;;;;;;;;;;4336253;32;316571;-80
2023/05/23 00:03:25;;;;;;;7.22;2.67;;;;;;;;;;4342493;32;317104;-80
2023/05/23 00:05:51;;;;;;;5.10;2.37;;;;;;;;;;4331849;32;317148;-83
2023/05/23 00:08:18;;;;;;;4.00;2.80;;;;;;;;;;4341570;32;317023;-82
2023/05/23 00:10:46;;;;;;;5.20;2.35;;;;;;;;;;4330060;32;341058;-82
2023/05/23 00:13:13;;;;;;;5.80;2.17;;;;;;;;;;4340969;32;317198;-82
2023/05/23 00:15:41;;;;;;;7.07;2.47;;;;;;;;;;4341249;32;317367;-82
2023/05/23 00:18:09;;;;;;;5.18;2.65;;;;;;;;;;4326913;32;316530;-82
2023/05/23 00:20:39;;;;;;;7.53;2.87;;;;;;;;;;4341379;32;317134;-81
2023/05/23 00:23:07;;;;;;;8.38;2.90;;;;;;;;;;4330315;32;316887;-83
2023/05/23 00:25:34;;;;;;;6.55;2.97;;;;;;;;;;4339832;32;317290;-82
2023/05/23 00:28:03;;;;;;;4.00;2.75;;;;;;;;;;4329919;32;317626;-83
2023/05/23 00:30:31;;;;;;;5.65;2.85;;;;;;;;;;4339818;32;317269;-82
2023/05/23 00:32:59;;;;;;;6.45;2.70;;;;;;;;;;4330089;32;317404;-80
2023/05/23 00:35:26;;;;;;;2.95;2.12;;;;;;;;;;4339353;32;317547;-80
2023/05/23 00:37:54;;;;;;;27.48;3.03;;;;;;;;;;4330132;32;317387;-80
2023/05/23 00:40:21;;;;;;;3.83;2.75;;;;;;;;;;4339640;32;317744;-80
2023/05/23 00:42:48;;;;;;;7.60;3.25;;;;;;;;;;4329814;32;317420;-80
2023/05/23 00:45:17;;;;;;;6.00;2.83;;;;;;;;;;4338814;32;316784;-80
2023/05/23 00:47:45;;;;;;;5.78;2.60;;;;;;;;;;4339243;32;323244;-82
2023/05/23 00:50:14;;;;;;;4.95;2.70;;;;;;;;;;4326097;32;416347;-82
2023/05/23 00:52:41;;;;;;;3.83;2.75;;;;;;;;;;4338918;32;317331;-84
2023/05/23 00:55:09;;;;;;;3.22;2.58;;;;;;;;;;4330489;32;317255;-81
2023/05/23 00:57:39;;;;;;;5.15;2.55;;;;;;;;;;4340139;32;316644;-83
2023/05/23 01:00:09;;;;;;;3.00;2.58;;;;;;;;;;4330523;32;317342;-83
2023/05/23 01:02:42;;;;;;;7.78;3.08;;;;;;;;;;4350089;32;316506;-83
2023/05/23 01:05:13;;;;;;;4.80;3.45;;;;;;;;;;4349405;32;316438;-82
2023/05/23 01:07:40;;;;;;;10.10;2.83;;;;;;;;;;4355302;32;315357;-82
2023/05/23 01:10:09;;;;;;;4.65;3.17;;;;;;;;;;4348404;32;317081;-81
2023/05/23 01:12:46;;;;;;;4.10;2.85;;;;;;;;;;4352394;32;315188;-83
2023/05/23 01:15:16;;;;;;;3.67;2.40;;;;;;;;;;4327668;32;416277;-81
2023/05/23 01:17:51;;;;;;;4.12;2.53;;;;;;;;;;4339211;32;317234;-82
2023/05/23 01:20:22;;;;;;;3.15;2.45;;;;;;;;;;4340486;32;416191;-82
2023/05/23 01:23:07;;;;;;;7.07;2.80;;;;;;;;;;4344368;32;317643;-82
2023/05/23 01:25:58;;;;;;;5.47;3.58;;;;;;;;;;4353922;32;317142;-81
2023/05/23 01:28:31;;;;;;;5.75;3.05;;;;;;;;;;4329420;32;417443;-81
2023/05/23 01:31:00;;;;;;;5.65;3.35;;;;;;;;;;4321197;32;317409;-82
2023/05/23 01:33:29;;;;;;;8.77;5.37;;;;;;;;;;4328544;32;348105;-82
2023/05/23 01:35:58;;;;;;;16.33;10.88;;;;;;;;;;4329822;32;317222;-82
2023/05/23 01:38:24;;;;;;;25.40;16.37;;;;;;;;;;4339089;32;318985;-82
2023/05/23 01:40:51;;;;;;;19.55;14.73;;;;;;;;;;4332790;32;319411;-82
2023/05/23 01:43:18;;;;;;;12.27;9.20;;;;;;;;;;4357623;32;319542;-82
2023/05/23 01:45:48;;;;;;;14.27;6.85;;;;;;;;;;4343545;32;317396;-84
2023/05/23 01:48:15;;;;;;;8.38;4.53;;;;;;;;;;4353468;32;317610;-82
2023/05/23 01:50:44;;;;;;;5.87;3.72;;;;;;;;;;4352655;32;317109;-81
2023/05/23 01:53:12;;;;;;;6.20;3.00;;;;;;;;;;4328507;32;388675;-84
2023/05/23 01:55:41;;;;;;;3.20;2.85;;;;;;;;;;4353339;32;317435;-81
2023/05/23 01:58:08;;;;;;;8.27;2.83;;;;;;;;;;4342942;32;317146;-81
2023/05/23 02:00:35;;;;;;;6.45;2.78;;;;;;;;;;4352578;32;317376;-81
2023/05/23 02:03:04;;;;;;;6.20;3.40;;;;;;;;;;4341176;32;358290;-81
2023/05/23 02:05:31;;;;;;;4.47;2.55;;;;;;;;;;4352806;32;338636;-81
2023/05/23 02:07:59;;;;;;;4.80;2.72;;;;;;;;;;4336131;32;316745;-81
2023/05/23 02:10:26;;;;;;;6.43;2.83;;;;;;;;;;4352286;32;317661;-82
2023/05/23 02:12:53;;;;;;;5.72;2.53;;;;;;;;;;4343673;32;317406;-81
2023/05/23 02:15:21;;;;;;;5.45;2.37;;;;;;;;;;4352285;32;316543;-81
2023/05/23 02:17:48;;;;;;;3.60;2.53;;;;;;;;;;4341589;32;317501;-81
2023/05/23 02:20:19;;;;;;;4.95;2.83;;;;;;;;;;4338420;32;317236;-81
2023/05/23 02:22:46;;;;;;;5.40;2.67;;;;;;;;;;4323536;32;317527;-84
2023/05/23 02:25:12;;;;;;;4.50;2.83;;;;;;;;;;4337214;32;317292;-81
2023/05/23 02:27:39;;;;;;;6.90;2.58;;;;;;;;;;4336421;32;323364;-81
2023/05/23 02:30:08;;;;;;;5.12;3.30;;;;;;;;;;4328737;32;317269;-81
2023/05/23 02:32:36;;;;;;;3.55;2.67;;;;;;;;;;4336484;32;317499;-78
2023/05/23 02:35:03;;;;;;;3.15;2.33;;;;;;;;;;4314026;32;316617;-78
2023/05/23 02:37:31;;;;;;;4.05;2.75;;;;;;;;;;4323498;32;317157;-78
2023/05/23 02:39:58;;;;;;;8.82;2.58;;;;;;;;;;4313719;32;317589;-78
2023/05/23 02:42:24;;;;;;;4.03;2.53;;;;;;;;;;4322083;32;317149;-78
2023/05/23 02:44:51;;;;;;;4.32;2.92;;;;;;;;;;4313722;33;317597;-79
2023/05/23 02:47:17;;;;;;;9.52;3.33;;;;;;;;;;4323019;33;317294;-79
2023/05/23 02:49:44;;;;;;;8.25;3.90;;;;;;;;;;4314197;33;336469;-78
2023/05/23 02:52:13;;;;;;;15.63;5.15;;;;;;;;;;4310314;33;416029;-79
2023/05/23 02:54:41;;;;;;;9.40;5.53;;;;;;;;;;4323590;33;318356;-78
2023/05/23 02:57:09;;;;;;;8.65;5.60;;;;;;;;;;4312716;33;317370;-78
2023/05/23 02:59:35;;;;;;;6.60;4.12;;;;;;;;;;4322520;33;317578;-80
2023/05/23 03:02:02;;;;;;;12.77;6.00;;;;;;;;;;4312591;33;317261;-78
2023/05/23 03:04:29;;;;;;;12.90;5.32;;;;;;;;;;4323306;33;318401;-79
2023/05/23 03:06:58;;;;;;;6.93;3.92;;;;;;;;;;4313477;32;317593;-79
2023/05/23 03:09:25;;;;;;;8.93;4.85;;;;;;;;;;4323691;33;316976;-79
2023/05/23 03:11:53;;;;;;;7.28;4.12;;;;;;;;;;4311538;32;317781;-81
2023/05/23 03:14:22;;;;;;;6.00;4.25;;;;;;;;;;4323010;33;317150;-79
2023/05/23 03:16:49;;;;;;;6.85;3.70;;;;;;;;;;4312331;33;317418;-79
2023/05/23 03:19:16;;;;;;;6.78;4.20;;;;;;;;;;4323311;33;316797;-79
2023/05/23 03:21:43;;;;;;;6.43;3.50;;;;;;;;;;4322072;32;317517;-79
2023/05/23 03:24:09;;;;;;;4.65;3.05;;;;;;;;;;4318149;32;417798;-79
2023/05/23 03:26:36;;;;;;;15.57;3.65;;;;;;;;;;4337365;32;317051;-79
2023/05/23 03:29:05;;;;;;;7.90;3.25;;;;;;;;;;4327927;32;318306;-80
2023/05/23 03:31:33;;;;;;;6.35;3.70;;;;;;;;;;4336247;32;317146;-79
2023/05/23 03:33:59;;;;;;;6.60;4.07;;;;;;;;;;4313564;32;317027;-79
2023/05/23 03:36:27;;;;;;;16.12;4.95;;;;;;;;;;4337900;32;316898;-79
2023/05/23 03:38:54;;;;;;;12.20;6.30;;;;;;;;;;4327049;32;318385;-79
2023/05/23 03:41:20;;;;;;;12.00;4.97;;;;;;;;;;4336041;32;318383;-79
2023/05/23 03:43:47;;;;;;;9.48;5.45;;;;;;;;;;4327693;33;317482;-79
2023/05/23 03:46:15;;;;;;;14.50;5.47;;;;;;;;;;4337620;32;316867;-79
2023/05/23 03:48:42;;;;;;;8.40;5.65;;;;;;;;;;4337220;33;317490;-79
2023/05/23 03:51:09;;;;;;;13.05;6.32;;;;;;;;;;4326260;32;317153;-79
2023/05/23 03:53:35;;;;;;;11.02;6.75;;;;;;;;;;4336574;32;318992;-79
2023/05/23 03:56:02;;;;;;;10.05;5.40;;;;;;;;;;4327771;32;318091;-79
2023/05/23 03:58:29;;;;;;;10.45;6.62;;;;;;;;;;4339024;32;317815;-80
2023/05/23 04:00:56;;;;;;;23.35;6.97;;;;;;;;;;4329814;32;318543;-80
2023/05/23 04:03:24;;;;;;;14.38;6.55;;;;;;;;;;4340084;32;317659;-80
2023/05/23 04:05:51;;;;;;;12.32;6.15;;;;;;;;;;4328953;32;346570;-79
2023/05/23 04:08:20;;;;;;;13.43;5.60;;;;;;;;;;4340170;32;317585;-80
2023/05/23 04:10:47;;;;;;;8.43;5.57;;;;;;;;;;4326386;32;320477;-80
2023/05/23 04:13:14;;;;;;;9.20;4.65;;;;;;;;;;4339935;32;317315;-80
2023/05/23 04:15:42;;;;;;;7.12;5.05;;;;;;;;;;4339948;32;316561;-83
2023/05/23 04:18:08;;;;;;;10.30;5.30;;;;;;;;;;4327834;32;341311;-83
2023/05/23 04:20:36;;;;;;;12.27;4.75;;;;;;;;;;4339621;32;317691;-83
2023/05/23 04:23:03;;;;;;;13.50;5.20;;;;;;;;;;4330129;32;321716;-83
2023/05/23 04:25:30;;;;;;;8.32;4.97;;;;;;;;;;4339727;32;317649;-83
2023/05/23 04:27:57;;;;;;;14.87;5.95;;;;;;;;;;4327822;32;317663;-83
2023/05/23 04:30:24;;;;;;;8.70;5.32;;;;;;;;;;4330390;32;317571;-83
2023/05/23 04:32:51;;;;;;;12.18;5.60;;;;;;;;;;4325325;32;352065;-83
2023/05/23 04:35:17;;;;;;;20.60;8.20;;;;;;;;;;4329692;32;345263;-82
2023/05/23 04:37:46;;;;;;;14.38;7.43;;;;;;;;;;4339745;32;317730;-83
2023/05/23 04:40:13;;;;;;;12.10;8.05;;;;;;;;;;4305539;32;417986;-82
2023/05/23 04:42:41;;;;;;;12.20;6.15;;;;;;;;;;4352817;32;317747;-83
2023/05/23 04:45:08;;;;;;;11.82;6.95;;;;;;;;;;4343758;32;318702;-83
2023/05/23 04:47:36;;;;;;;10.65;6.00;;;;;;;;;;4354151;32;317980;-83
2023/05/23 04:50:03;;;;;;;8.10;5.85;;;;;;;;;;4343979;32;333629;-83
2023/05/23 04:52:32;;;;;;;12.70;5.32;;;;;;;;;;4345894;32;317642;-83
2023/05/23 04:55:00;;;;;;;9.00;4.83;;;;;;;;;;4342899;32;325696;-83
2023/05/23 04:57:26;;;;;;;9.00;4.00;;;;;;;;;;4352932;32;316596;-83
2023/05/23 04:59:55;;;;;;;8.55;4.37;;;;;;;;;;4344281;32;316942;-82
2023/05/23 05:02:22;;;;;;;8.43;4.28;;;;;;;;;;4353929;32;317313;-83
2023/05/23 05:04:50;;;;;;;8.05;3.90;;;;;;;;;;4344197;32;317265;-83
2023/05/23 05:07:17;;;;;;;15.82;3.80;;;;;;;;;;4352557;32;317364;-83
2023/05/23 05:09:44;;;;;;;6.95;3.17;;;;;;;;;;4352903;32;317600;-83
2023/05/23 05:12:12;;;;;;;3.75;3.10;;;;;;;;;;4341553;32;417542;-83
2023/05/23 05:14:40;;;;;;;4.95;3.40;;;;;;;;;;4355067;32;317508;-82
2023/05/23 05:17:07;;;;;;;8.75;3.78;;;;;;;;;;4346906;32;316592;-83
2023/05/23 05:19:34;;;;;;;9.57;4.20;;;;;;;;;;4372131;32;315638;-81
2023/05/23 05:22:01;;;;;;;6.03;4.05;;;;;;;;;;4361831;32;315834;-81
2023/05/23 05:24:27;;;;;;;9.93;4.57;;;;;;;;;;4371118;32;315996;-82
2023/05/23 05:26:55;;;;;;;11.15;4.30;;;;;;;;;;4362874;32;315322;-82
2023/05/23 05:29:23;;;;;;;13.13;4.45;;;;;;;;;;4365347;32;317650;-82
2023/05/23 05:31:50;;;;;;;6.65;3.83;;;;;;;;;;4337497;32;317623;-85
2023/05/23 05:34:17;;;;;;;7.00;4.60;;;;;;;;;;4353072;32;316732;-85
2023/05/23 05:36:46;;;;;;;6.35;4.20;;;;;;;;;;4353568;32;317333;-84
2023/05/23 05:39:13;;;;;;;8.52;4.55;;;;;;;;;;4340006;32;417912;-84
2023/05/23 05:41:40;;;;;;;9.35;4.35;;;;;;;;;;4351787;32;316867;-84
2023/05/23 05:44:07;;;;;;;12.90;4.78;;;;;;;;;;4341817;32;316991;-84
2023/05/23 05:46:35;;;;;;;7.40;4.87;;;;;;;;;;4351727;32;318504;-84
2023/05/23 05:49:02;;;;;;;6.28;4.65;;;;;;;;;;4342601;32;317345;-84
2023/05/23 05:51:30;;;;;;;10.40;4.72;;;;;;;;;;4352417;32;317494;-83
2023/05/23 05:53:59;;;;;;;7.93;4.87;;;;;;;;;;4342346;32;317638;-80
2023/05/23 05:56:26;;;;;;;9.82;4.68;;;;;;;;;;4344366;32;316722;-81
2023/05/23 05:58:53;;;;;;;10.23;4.07;;;;;;;;;;4343550;32;317199;-80
2023/05/23 06:01:20;;;;;;;13.65;3.67;;;;;;;;;;4353146;32;318075;-88
2023/05/23 06:03:48;;;;;;;10.18;4.30;;;;;;;;;;4342160;32;318796;-84
2023/05/23 06:06:15;;;;;;;3.97;3.40;;;;;;;;;;4352973;32;318503;-82
2023/05/23 06:08:42;;;;;;;5.85;3.37;;;;;;;;;;4350429;32;340963;-83
2023/05/23 06:11:09;;;;;;;8.27;3.85;;;;;;;;;;4343462;32;317081;-81
2023/05/23 06:13:36;;;;;;;8.85;3.47;;;;;;;;;;4350756;32;316630;-82
2023/05/23 06:16:02;;;;;;;8.25;4.65;;;;;;;;;;4328920;32;317953;-82
2023/05/23 06:18:31;;;;;;;6.53;4.25;;;;;;;;;;4338245;32;317077;-83
2023/05/23 06:21:09;;;;;;;6.90;4.10;;;;;;;;;;4327849;32;317477;-82
2023/05/23 06:23:35;;;;;;;6.57;3.85;;;;;;;;;;4323494;32;317634;-83
2023/05/23 06:26:02;;;;;;;5.72;3.75;;;;;;;;;;4328671;32;317672;-83
2023/05/23 06:28:29;;;;;;;4.35;3.65;;;;;;;;;;4338154;32;317347;-79
2023/05/23 06:30:56;;;;;;;7.80;3.80;;;;;;;;;;4326956;32;316623;-79
2023/05/23 06:33:22;;;;;;;10.65;3.95;;;;;;;;;;4336719;32;327958;-79
2023/05/23 06:35:49;;;;;;;6.53;3.92;;;;;;;;;;4342648;32;318620;-79
2023/05/23 06:38:17;;;;;;;7.72;3.65;;;;;;;;;;4352886;32;317770;-79
2023/05/23 06:40:44;;;;;;;5.20;3.40;;;;;;;;;;4352134;32;317392;-79
2023/05/23 06:43:11;;;;;;;7.85;3.70;;;;;;;;;;4307042;32;416911;-79
2023/05/23 06:45:38;;;;;;;7.78;5.10;;;;;;;;;;4336584;32;324837;-79
2023/05/23 06:48:06;;;;;;;6.60;3.58;;;;;;;;;;4328003;32;317214;-79
2023/05/23 06:50:35;;;;;;;5.70;3.28;;;;;;;;;;4336925;32;316666;-79
2023/05/23 06:53:04;;;;;;;4.72;3.25;;;;;;;;;;4317789;32;317010;-80
2023/05/23 06:55:33;;;;;;;9.88;3.37;;;;;;;;;;4337050;32;342274;-80
2023/05/23 06:58:02;;;;;;;4.70;3.70;;;;;;;;;;4327553;32;317263;-80
2023/05/23 07:00:29;;;;;;;5.93;3.30;;;;;;;;;;4337663;32;317476;-80
2023/05/23 07:02:59;;;;;;;5.22;2.92;;;;;;;;;;4327611;32;317472;-81
2023/05/23 07:05:27;;;;;;;9.10;3.22;;;;;;;;;;4338015;32;316850;-81
2023/05/23 07:07:53;;;;;;;6.32;3.12;;;;;;;;;;4328279;32;317506;-81
2023/05/23 07:10:20;;;;;;;8.63;3.08;;;;;;;;;;4334510;32;317546;-80
2023/05/23 07:12:48;;;;;;;7.68;3.42;;;;;;;;;;4325443;32;316843;-79
2023/05/23 07:15:15;;;;;;;5.55;2.95;;;;;;;;;;4334145;32;316855;-80
2023/05/23 07:17:42;;;;;;;5.97;2.83;;;;;;;;;;4337224;32;315587;-81
2023/05/23 07:20:10;;;;;;;5.32;2.78;;;;;;;;;;4305239;33;317287;-80
2023/05/23 07:22:37;;;;;;;4.50;3.00;;;;;;;;;;4321665;33;317443;-80
2023/05/23 07:25:04;;;;;;;4.00;2.67;;;;;;;;;;4313268;33;317231;-81
2023/05/23 07:27:30;;;;;;;6.45;2.92;;;;;;;;;;4323319;33;316770;-80
2023/05/23 07:30:00;;;;;;;12.88;3.25;;;;;;;;;;4314398;33;316741;-82
2023/05/23 07:32:26;;;;;;;7.57;3.60;;;;;;;;;;4326307;32;317792;-80
2023/05/23 07:34:53;;;;;;;11.25;2.65;;;;;;;;;;4303524;32;317133;-80
2023/05/23 07:37:21;;;;;;;3.67;2.70;;;;;;;;;;4339365;32;318967;-80
2023/05/23 07:39:50;;;;;;;11.20;3.05;;;;;;;;;;4327751;32;346104;-80
2023/05/23 07:42:17;;;;;;;5.87;3.33;;;;;;;;;;4352313;32;318417;-80
2023/05/23 07:44:44;;;;;;;3.30;2.60;;;;;;;;;;4355066;32;317134;-80
2023/05/23 07:47:12;;;;;;;8.98;2.75;;;;;;;;;;4342275;32;416620;-82
2023/05/23 07:49:39;;;;;;;6.53;2.90;;;;;;;;;;4355115;32;317275;-79
2023/05/23 07:52:06;;;;;;;5.87;2.45;;;;;;;;;;4344129;32;316978;-82
2023/05/23 07:54:32;;;;;;;5.30;3.00;;;;;;;;;;4354854;32;316635;-79
2023/05/23 07:56:59;;;;;;;5.72;3.10;;;;;;;;;;4343876;32;317282;-80
2023/05/23 07:59:26;;;;;;;8.23;3.37;;;;;;;;;;4345461;32;317423;-81
2023/05/23 08:01:53;;;;;;;5.25;3.30;;;;;;;;;;4339558;32;317260;-81
2023/05/23 08:04:21;;;;;;;5.90;2.70;;;;;;;;;;4351505;32;317784;-84
2023/05/23 08:06:48;;;;;;;6.05;2.75;;;;;;;;;;4333065;32;388309;-83
2023/05/23 08:09:14;;;;;;;4.78;2.70;;;;;;;;;;4338397;32;316545;-82
2023/05/23 08:11:41;;;;;;;4.45;2.97;;;;;;;;;;4339721;32;317425;-82
2023/05/23 08:14:08;;;;;;;4.35;2.97;;;;;;;;;;4329441;32;317280;-82
2023/05/23 08:16:35;;;;;;;6.05;3.05;;;;;;;;;;4339632;32;316625;-82
2023/05/23 08:19:01;;;;;;;7.50;2.92;;;;;;;;;;4330328;32;317265;-82
2023/05/23 08:21:30;;;;;;;5.35;3.15;;;;;;;;;;4339778;32;317001;-82
2023/05/23 08:23:57;;;;;;;7.28;3.03;;;;;;;;;;4330035;32;316460;-82
2023/05/23 08:26:25;;;;;;;6.40;3.45;;;;;;;;;;4339752;32;317467;-82
2023/05/23 08:28:52;;;;;;;4.47;2.60;;;;;;;;;;4330081;32;316984;-82
2023/05/23 08:31:19;;;;;;;5.15;3.35;;;;;;;;;;4338472;32;316624;-82
2023/05/23 08:33:46;;;;;;;5.03;2.92;;;;;;;;;;4333906;32;328068;-82
2023/05/23 08:36:12;;;;;;;6.15;3.17;;;;;;;;;;4354474;32;317316;-82
2023/05/23 08:38:40;;;;;;;10.88;3.37;;;;;;;;;;4353201;32;317221;-82
2023/05/23 08:41:13;;;;;;;6.10;3.12;;;;;;;;;;4342792;32;317661;-82
2023/05/23 08:43:40;;;;;;;7.85;3.47;;;;;;;;;;4353650;32;317225;-82
2023/05/23 08:46:06;;;;;;;4.18;2.97;;;;;;;;;;4344648;32;316628;-82
2023/05/23 08:48:36;;;;;;;3.85;2.83;;;;;;;;;;4353539;32;317450;-82
2023/05/23 08:51:04;;;;;;;5.37;3.33;;;;;;;;;;4344798;32;317522;-82
2023/05/23 08:53:31;;;;;;;5.65;3.17;;;;;;;;;;4353999;32;317460;-82
2023/05/23 08:56:01;;;;;;;8.75;2.72;;;;;;;;;;4343756;32;316499;-81
2023/05/23 08:58:29;;;;;;;3.95;3.10;;;;;;;;;;4353058;32;316563;-81
2023/05/23 09:00:56;;;;;;;4.87;2.75;;;;;;;;;;4331397;32;316802;-80
2023/05/23 09:03:23;;;;;;;9.82;3.03;;;;;;;;;;4328574;32;322455;-82
2023/05/23 09:05:50;;;;;;;6.37;2.63;;;;;;;;;;4327408;32;339730;-82
2023/05/23 09:08:18;;;;;;;5.85;2.92;;;;;;;;;;4351671;32;339861;-82
2023/05/23 09:10:44;;;;;;;4.40;2.90;;;;;;;;;;4344062;32;317276;-82
2023/05/23 09:13:16;;;;;;;5.72;2.90;;;;;;;;;;4353784;32;316760;-82
2023/05/23 09:15:56;;;;;;;6.68;3.25;;;;;;;;;;4342807;32;317187;-82
2023/05/23 09:18:25;;;;;;;4.32;2.58;;;;;;;;;;4353904;32;317583;-82
2023/05/23 09:20:52;;;;;;;9.50;2.87;;;;;;;;;;4342853;32;316813;-82
2023/05/23 09:23:19;;;;;;;11.05;3.25;;;;;;;;;;4352580;32;317395;-81
2023/05/23 09:25:47;;;;;;;3.95;3.20;;;;;;;;;;4342185;32;317653;-81
2023/05/23 09:28:18;;;;;;;8.60;3.08;;;;;;;;;;4352942;32;317258;-81
2023/05/23 09:30:44;;;;;;;10.15;2.97;;;;;;;;;;4343478;32;323719;-81
2023/05/23 09:33:15;;;;;;;3.97;3.08;;;;;;;;;;4356582;32;317631;-81
2023/05/23 09:35:45;;;;;;;6.60;3.25;;;;;;;;;;4360256;32;317082;-81
2023/05/23 09:38:11;;;;;;;6.70;3.05;;;;;;;;;;4369387;32;315737;-81
2023/05/23 09:40:45;;;;;;;5.87;2.87;;;;;;;;;;4360781;32;316907;-84
2023/05/23 09:43:12;;;;;;;4.68;3.45;;;;;;;;;;4352668;32;334935;-81
2023/05/23 09:45:40;;;;;;;6.18;3.37;;;;;;;;;;4341784;32;317385;-81
2023/05/23 09:48:13;;;;;;;13.10;3.87;;;;;;;;;;4324572;32;416458;-80
2023/05/23 09:50:39;;;;;;;10.63;3.78;;;;;;;;;;4327835;32;318664;-82
2023/05/23 09:53:06;;;;;;;9.43;4.20;;;;;;;;;;4337737;32;318236;-81
2023/05/23 09:55:33;;;;;;;4.12;3.20;;;;;;;;;;4338027;32;316857;-80
2023/05/23 09:58:01;;;;;;;5.40;2.95;;;;;;;;;;4328551;32;316751;-80
2023/05/23 10:00:28;;;;;;;8.80;3.47;;;;;;;;;;4337197;32;317473;-80
2023/05/23 10:03:06;;;;;;;13.15;3.30;;;;;;;;;;4328610;32;317194;-79
2023/05/23 10:05:40;;;;;;;4.75;3.67;;;;;;;;;;4338107;32;318355;-79
2023/05/23 10:08:10;;;;;;;6.60;3.30;;;;;;;;;;4325564;32;418210;-80
2023/05/23 10:11:15;;;;;;;5.60;3.80;;;;;;;;;;4338106;32;317435;-81
2023/05/23 10:13:44;;;;;;;5.30;3.12;;;;;;;;;;4311108;33;416931;-82
2023/05/23 10:16:17;;;;;;;8.32;3.87;;;;;;;;;;4322060;33;316795;-81
2023/05/23 10:18:48;;;;;;;4.60;2.60;;;;;;;;;;4312533;33;317459;-80
2023/05/23 10:21:19;;;;;;;6.03;2.75;;;;;;;;;;4323169;33;316800;-80
2023/05/23 10:23:47;;;;;;;5.43;3.20;;;;;;;;;;4312437;33;316604;-81
2023/05/23 10:26:15;;;;;;;5.97;3.08;;;;;;;;;;4322309;33;317624;-79
2023/05/23 10:28:42;;;;;;;5.78;3.47;;;;;;;;;;4311378;33;390773;-80
2023/05/23 10:31:10;;;;;;;6.95;3.40;;;;;;;;;;4332575;32;316860;-82
2023/05/23 10:33:45;;;;;;;6.78;2.65;;;;;;;;;;4339804;32;316716;-81
2023/05/23 10:36:22;;;;;;;5.00;2.80;;;;;;;;;;4325258;32;416146;-81
2023/05/23 10:38:54;;;;;;;5.20;2.85;;;;;;;;;;4327997;32;317648;-81
2023/05/23 10:41:27;;;;;;;7.93;2.62;;;;;;;;;;4343453;32;316372;-80
2023/05/23 10:44:02;;;;;;;7.43;2.97;;;;;;;;;;4320230;32;316716;-81
2023/05/23 10:46:50;;;;;;;14.30;3.75;;;;;;;;;;4321938;33;316541;-81
2023/05/23 10:49:17;;;;;;;7.82;3.03;;;;;;;;;;4320730;32;420316;-81
2023/05/23 10:51:49;;;;;;;4.87;2.85;;;;;;;;;;4311521;33;316819;-82
2023/05/23 10:54:18;;;;;;;6.18;2.83;;;;;;;;;;4322303;33;316493;-82
2023/05/23 10:56:47;;;;;;;5.10;2.97;;;;;;;;;;4311391;33;316439;-82
2023/05/23 10:59:21;;;;;;;4.75;2.80;;;;;;;;;;4321577;33;317850;-82
2023/05/23 11:01:51;;;;;;;4.97;2.50;;;;;;;;;;4312409;33;317162;-81
2023/05/23 11:04:26;;;;;;;3.72;2.10;;;;;;;;;;4322622;33;316632;-82
2023/05/23 11:06:55;;;;;;;4.80;2.60;;;;;;;;;;4309818;33;348194;-82
2023/05/23 11:09:22;;;;;;;5.95;2.58;;;;;;;;;;4320758;33;317263;-84
2023/05/23 11:11:59;;;;;;;3.67;2.67;;;;;;;;;;4312313;33;317211;-83
2023/05/23 11:14:53;;;;;;;6.03;2.83;;;;;;;;;;4322178;33;316802;-83
2023/05/23 11:17:31;;;;;;;6.03;3.47;;;;;;;;;;4308755;33;417404;-83
2023/05/23 11:20:00;;;;;;;9.85;3.30;;;;;;;;;;4311059;33;339723;-82
2023/05/23 11:22:31;;;;;;;7.55;2.90;;;;;;;;;;4322526;33;316467;-80
2023/05/23 11:24:59;;;;;;;3.92;2.58;;;;;;;;;;4311736;33;317094;-80
2023/05/23 11:27:30;;;;;;;7.35;3.03;;;;;;;;;;4322398;33;317119;-80
2023/05/23 11:30:02;;;;;;;6.35;3.03;;;;;;;;;;4312301;33;317464;-81
2023/05/23 11:32:30;;;;;;;8.48;2.85;;;;;;;;;;4321757;33;317156;-80
2023/05/23 11:34:59;;;;;;;6.30;2.83;;;;;;;;;;4303260;32;316750;-87
2023/05/23 11:37:27;;;;;;;6.22;3.12;;;;;;;;;;4316575;33;317024;-85
2023/05/23 11:39:55;;;;;;;3.60;2.45;;;;;;;;;;4311766;32;316538;-88
2023/05/23 11:42:23;;;;;;;10.25;2.75;;;;;;;;;;4336129;32;316630;-88
2023/05/23 11:44:52;;;;;;;7.50;3.13;;;;;;;;;;4317498;32;322723;-86
2023/05/23 11:47:20;;;;;;;5.25;2.87;;;;;;;;;;4322805;32;317252;-87
2023/05/23 11:49:48;;;;;;;7.30;2.78;;;;;;;;;;4313085;32;317991;-88
2023/05/23 11:52:15;;;;;;;6.25;2.90;;;;;;;;;;4320769;32;320767;-88
2023/05/23 11:54:42;;;;;;;4.47;2.75;;;;;;;;;;4312956;32;319727;-88
2023/05/23 11:57:12;;;;;;;4.93;2.70;;;;;;;;;;4326366;32;316640;-87
2023/05/23 11:59:40;;;;;;;6.97;2.65;;;;;;;;;;4325875;32;316767;-87
2023/05/23 12:02:07;;;;;;;6.70;2.83;;;;;;;;;;4334837;32;316321;-86
2023/05/23 12:04:35;;;;;;;6.85;2.65;;;;;;;;;;4329962;32;317132;-87
2023/05/23 12:07:05;;;;;;;3.87;2.60;;;;;;;;;;4326250;32;316587;-87
2023/05/23 12:09:31;;;;;;;5.55;2.78;;;;;;;;;;4337932;32;316596;-87
2023/05/23 12:11:58;;;;;;;7.00;2.72;;;;;;;;;;4324679;32;316945;-85
2023/05/23 12:14:28;;;;;;;7.72;3.00;;;;;;;;;;4322333;33;338764;-84
2023/05/23 12:16:56;;;;;;;5.07;2.85;;;;;;;;;;4312802;32;316443;-86
2023/05/23 12:19:23;;;;;;;6.87;2.47;;;;;;;;;;4322742;33;316515;-86
2023/05/23 12:21:50;;;;;;;6.55;2.50;;;;;;;;;;4321379;32;316387;-86
2023/05/23 12:24:18;;;;;;;3.40;2.58;;;;;;;;;;4325459;33;317116;-87
2023/05/23 12:26:51;;;;;;;7.97;2.83;;;;;;;;;;4314408;33;316717;-88
2023/05/23 12:29:22;;;;;;;7.97;3.05;;;;;;;;;;4324013;33;317074;-86
2023/05/23 12:31:51;;;;;;;4.82;3.00;;;;;;;;;;4301770;32;317340;-88
2023/05/23 12:34:19;;;;;;;5.85;2.85;;;;;;;;;;4323947;32;317198;-84
2023/05/23 12:36:47;;;;;;;6.22;3.05;;;;;;;;;;4326839;32;316924;-87
2023/05/23 12:39:15;;;;;;;4.95;2.67;;;;;;;;;;4339763;32;317825;-85
2023/05/23 12:41:45;;;;;;;4.22;2.62;;;;;;;;;;4336763;32;316511;-86
2023/05/23 12:44:15;;;;;;;4.05;2.85;;;;;;;;;;4353733;32;317154;-89
2023/05/23 12:46:42;;;;;;;4.72;3.20;;;;;;;;;;4343751;32;316787;-87
2023/05/23 12:49:11;;;;;;;6.40;2.53;;;;;;;;;;4354601;32;316445;-88
2023/05/23 12:51:37;;;;;;;3.72;2.25;;;;;;;;;;4354094;32;317728;-88
2023/05/23 12:54:04;;;;;;;7.12;2.72;;;;;;;;;;4341194;32;417543;-87
2023/05/23 12:56:31;;;;;;;6.68;2.92;;;;;;;;;;4354418;32;317401;-86
2023/05/23 12:58:57;;;;;;;9.30;2.90;;;;;;;;;;4343172;32;316370;-87
2023/05/23 13:01:24;;;;;;;5.97;2.80;;;;;;;;;;4345994;32;316690;-88
2023/05/23 13:03:51;;;;;;;3.55;2.40;;;;;;;;;;4343364;32;317341;-87
2023/05/23 13:06:19;;;;;;;5.65;3.00;;;;;;;;;;4353964;32;316988;-87
2023/05/23 13:08:47;;;;;;;4.12;2.78;;;;;;;;;;4344367;32;317822;-87
2023/05/23 13:11:14;;;;;;;4.87;2.65;;;;;;;;;;4353859;32;324418;-87
2023/05/23 13:13:41;;;;;;;9.50;3.12;;;;;;;;;;4344452;32;317338;-88
2023/05/23 13:16:08;;;;;;;4.50;2.70;;;;;;;;;;4353984;32;316546;-87
2023/05/23 13:18:35;;;;;;;4.32;2.70;;;;;;;;;;4354093;32;316658;-87
2023/05/23 13:21:02;;;;;;;9.18;2.83;;;;;;;;;;4343822;32;316649;-88
2023/05/23 13:23:30;;;;;;;6.68;2.45;;;;;;;;;;4353527;32;316664;-87
2023/05/23 13:25:57;;;;;;;8.43;2.58;;;;;;;;;;4344129;32;317525;-87
2023/05/23 13:28:24;;;;;;;8.05;3.80;;;;;;;;;;4352586;32;317234;-88
2023/05/23 13:30:51;;;;;;;3.70;2.35;;;;;;;;;;4342477;32;317492;-85
2023/05/23 13:33:18;;;;;;;6.57;2.65;;;;;;;;;;4355107;32;317610;-86
2023/05/23 13:35:48;;;;;;;6.68;2.80;;;;;;;;;;4357626;32;316480;-85
2023/05/23 13:38:15;;;;;;;8.05;2.65;;;;;;;;;;4353234;32;316731;-88
2023/05/23 13:40:43;;;;;;;9.68;3.65;;;;;;;;;;4343941;32;317399;-88
2023/05/23 13:43:10;;;;;;;6.20;3.05;;;;;;;;;;4353491;32;316428;-86
2023/05/23 13:45:36;;;;;;;3.92;2.78;;;;;;;;;;4354296;32;317308;-88
2023/05/23 13:48:03;;;;;;;5.07;2.60;;;;;;;;;;4344165;32;316525;-87
2023/05/23 13:50:30;;;;;;;6.30;2.42;;;;;;;;;;4356227;32;345704;-85
2023/05/23 13:52:57;;;;;;;6.82;3.72;;;;;;;;;;4363473;32;317202;-85
2023/05/23 13:55:23;;;;;;;5.47;2.65;;;;;;;;;;4371385;32;315382;-85
2023/05/23 13:57:51;;;;;;;6.40;3.37;;;;;;;;;;4355542;32;316252;-88
2023/05/23 14:00:18;;;;;;;5.93;2.85;;;;;;;;;;4361142;32;316597;-88
2023/05/23 14:02:45;;;;;;;9.10;3.50;;;;;;;;;;4346814;32;316379;-85
2023/05/23 14:05:12;;;;;;;12.73;2.97;;;;;;;;;;4353028;32;348659;-87
2023/05/23 14:07:40;;;;;;;8.80;3.47;;;;;;;;;;4352835;32;318056;-85
2023/05/23 14:10:08;;;;;;;8.27;3.25;;;;;;;;;;4335994;32;416422;-87
2023/05/23 14:12:34;;;;;;;8.52;2.97;;;;;;;;;;4338147;32;316572;-84
2023/05/23 14:15:02;;;;;;;7.18;3.05;;;;;;;;;;4327417;32;317538;-87
2023/05/23 14:17:29;;;;;;;4.93;3.05;;;;;;;;;;4342046;32;317608;-87
2023/05/23 14:19:56;;;;;;;13.93;3.43;;;;;;;;;;4341889;32;324610;-87
2023/05/23 14:22:22;;;;;;;4.05;2.62;;;;;;;;;;4352709;32;317787;-86
2023/05/23 14:24:49;;;;;;;7.97;3.03;;;;;;;;;;4342269;32;316437;-88
2023/05/23 14:27:17;;;;;;;7.12;2.95;;;;;;;;;;4348118;32;317109;-87
2023/05/23 14:29:45;;;;;;;11.68;3.10;;;;;;;;;;4334763;32;316705;-84
2023/05/23 14:32:13;;;;;;;8.88;2.90;;;;;;;;;;4336904;32;344067;-84
2023/05/23 14:34:40;;;;;;;8.60;2.78;;;;;;;;;;4330907;32;316695;-89